Time;durP1;ratioP1;P1;durP2;ratioP2;P2;SDS_P1;SDS_P2;PMS_P1;PMS_P2;Temp;Humidity;BMP_temperature;BMP_pressure;BME280_temperature;BME280_humidity;BME280_pressure;Samples;Min_cycle;Max_cycle;Signal;HPM_P1;HPM_P2
2023/01/23 00:01:18;;;;;;;23.90;13.10;;;;;;;8.89;100.00;97728.16;5086642;28;20647;-72
2023/01/23 00:03:46;;;;;;;22.77;12.63;;;;;;;8.90;100.00;97741.91;5084502;28;20195;-71
2023/01/23 00:06:14;;;;;;;21.63;13.37;;;;;;;8.94;100.00;97743.53;5086777;28;20855;-71
2023/01/23 00:08:43;;;;;;;25.87;12.87;;;;;;;8.96;100.00;97744.34;5086046;28;20218;-71
2023/01/23 00:11:20;;;;;;;21.07;12.40;;;;;;;9.02;99.93;97747.59;5085607;28;20219;-71
2023/01/23 00:13:47;;;;;;;20.23;13.13;;;;;;;8.90;99.74;97750.50;5084203;28;20192;-71
2023/01/23 00:16:17;;;;;;;25.00;13.20;;;;;;;8.98;99.01;97750.31;5086451;28;20591;-72
2023/01/23 00:18:45;;;;;;;23.33;13.03;;;;;;;8.94;99.04;97759.03;5083889;28;20185;-72
2023/01/23 00:21:14;;;;;;;20.97;12.77;;;;;;;9.00;98.84;97758.84;5086275;28;20691;-73
2023/01/23 00:23:46;;;;;;;19.53;12.23;;;;;;;9.04;97.92;97760.47;5086425;28;20280;-72
2023/01/23 00:26:16;;;;;;;17.73;10.77;;;;;;;8.98;97.67;97758.06;5085838;28;20185;-73
2023/01/23 00:28:45;;;;;;;18.60;12.17;;;;;;;8.91;97.21;97756.50;5082570;28;20194;-73
2023/01/23 00:31:18;;;;;;;21.40;12.23;;;;;;;8.84;97.97;97770.50;5086227;28;20211;-72
2023/01/23 00:33:53;;;;;;;18.43;11.47;;;;;;;9.05;97.24;97758.72;5082557;28;20237;-72
2023/01/23 00:36:22;;;;;;;24.00;11.87;;;;;;;9.07;96.69;97767.28;5086310;28;20687;-71
2023/01/23 00:38:49;;;;;;;21.77;11.97;;;;;;;9.03;96.53;97779.41;5084270;28;20248;-71
2023/01/23 00:41:16;;;;;;;20.47;12.73;;;;;;;9.03;96.58;97771.66;5085287;28;20220;-72
2023/01/23 00:43:45;;;;;;;22.70;12.67;;;;;;;8.91;95.51;97777.19;5084062;28;20211;-72
2023/01/23 00:46:13;;;;;;;18.87;11.07;;;;;;;9.04;95.24;97773.38;5086379;28;20195;-72
2023/01/23 00:48:40;;;;;;;22.10;11.23;;;;;;;8.99;94.79;97778.66;5085747;28;20656;-72
2023/01/23 00:51:07;;;;;;;22.03;12.17;;;;;;;8.91;95.16;97784.94;5082305;28;20216;-71
2023/01/23 00:53:34;;;;;;;26.20;13.77;;;;;;;8.98;94.70;97771.78;5085984;28;20192;-71
2023/01/23 00:56:01;;;;;;;20.33;12.33;;;;;;;8.92;94.75;97765.97;5085684;28;20227;-72
2023/01/23 00:58:28;;;;;;;21.67;12.90;;;;;;;8.87;94.44;97767.81;5085068;28;20221;-71
2023/01/23 01:00:55;;;;;;;28.97;14.00;;;;;;;8.79;94.64;97773.19;5067595;28;20727;-72
2023/01/23 01:03:24;;;;;;;18.07;9.13;;;;;;;8.59;95.01;97779.78;5084848;28;20184;-72
2023/01/23 01:05:51;;;;;;;21.63;12.17;;;;;;;8.68;95.33;97776.94;5084500;28;20191;-71
2023/01/23 01:08:19;;;;;;;24.47;11.60;;;;;;;8.70;94.86;97793.25;5085929;28;20191;-71
2023/01/23 01:10:46;;;;;;;23.23;12.93;;;;;;;8.77;95.12;97780.16;5085859;28;20294;-71
2023/01/23 01:13:15;;;;;;;27.40;12.63;;;;;;;8.64;94.96;97767.59;5084366;28;20758;-71
2023/01/23 01:15:42;;;;;;;28.43;14.30;;;;;;;8.67;95.05;97775.25;5086086;28;20196;-71
2023/01/23 01:18:09;;;;;;;19.17;11.53;;;;;;;8.67;95.53;97777.84;5085248;28;20185;-71
2023/01/23 01:20:40;;;;;;;21.30;11.37;;;;;;;8.63;94.98;97768.50;5084810;28;20188;-71
2023/01/23 01:23:08;;;;;;;25.17;13.20;;;;;;;8.76;94.71;97786.19;5084217;28;20181;-73
2023/01/23 01:25:35;;;;;;;24.30;13.93;;;;;;;8.79;94.71;97780.94;5067550;28;20195;-71
2023/01/23 01:28:02;;;;;;;22.07;11.97;;;;;;;8.77;94.74;97779.28;5085647;28;20188;-71
2023/01/23 01:30:29;;;;;;;21.13;13.30;;;;;;;8.84;94.97;97788.59;5083072;28;20195;-72
2023/01/23 01:32:57;;;;;;;22.47;13.33;;;;;;;8.74;94.83;97767.31;5084818;28;20181;-72
2023/01/23 01:35:24;;;;;;;24.47;13.40;;;;;;;8.82;95.02;97793.75;5085324;28;20215;-72
2023/01/23 01:37:51;;;;;;;23.97;13.40;;;;;;;8.80;94.86;97792.09;5085890;28;20626;-71
2023/01/23 01:40:25;;;;;;;22.00;12.67;;;;;;;8.76;94.83;97787.91;5085455;28;20192;-71
2023/01/23 01:42:58;;;;;;;18.87;11.93;;;;;;;8.80;94.47;97787.78;5082095;28;20232;-71
2023/01/23 01:45:57;;;;;;;20.00;12.87;;;;;;;8.70;94.53;97782.91;5084808;28;20188;-72
2023/01/23 01:48:30;;;;;;;19.87;13.37;;;;;;;8.76;94.48;97791.34;5088047;28;20289;-71
2023/01/23 01:51:00;;;;;;;22.33;13.10;;;;;;;8.83;94.65;97786.88;5071495;28;20207;-71
2023/01/23 01:53:29;;;;;;;21.47;12.43;;;;;;;8.74;94.24;97793.13;5088737;28;20582;-71
2023/01/23 01:55:57;;;;;;;24.90;12.23;;;;;;;8.61;95.09;97790.91;5089013;28;20664;-71
2023/01/23 01:58:26;;;;;;;21.67;12.80;;;;;;;8.60;95.04;97800.38;5087684;28;20196;-73
2023/01/23 02:00:54;;;;;;;22.40;12.43;;;;;;;8.68;94.60;97803.63;5086873;28;20288;-72
2023/01/23 02:03:22;;;;;;;22.93;12.23;;;;;;;8.67;95.02;97804.53;5088110;28;20191;-72
2023/01/23 02:05:49;;;;;;;23.07;12.73;;;;;;;8.63;94.97;97807.22;5086979;28;20219;-73
2023/01/23 02:08:27;;;;;;;17.57;11.57;;;;;;;8.71;94.67;97813.88;5087598;28;20729;-72
2023/01/23 02:10:54;;;;;;;24.57;12.90;;;;;;;8.60;94.24;97825.34;5084929;28;20189;-73
2023/01/23 02:13:35;;;;;;;21.87;12.00;;;;;;;8.55;94.14;97819.47;5087168;28;20196;-71
2023/01/23 02:16:09;;;;;;;22.00;12.90;;;;;;;8.42;94.46;97818.06;5087727;28;20199;-71
2023/01/23 02:18:43;;;;;;;22.23;12.73;;;;;;;8.48;94.40;97829.09;5086213;28;20200;-72
2023/01/23 02:21:12;;;;;;;20.03;12.53;;;;;;;8.53;94.62;97814.31;5087392;28;20212;-73
2023/01/23 02:23:59;;;;;;;25.77;12.90;;;;;;;8.52;95.06;97829.84;5088202;28;20185;-72
2023/01/23 02:26:35;;;;;;;20.47;11.60;;;;;;;8.47;94.73;97834.31;5086358;28;20201;-73
2023/01/23 02:29:04;;;;;;;23.47;12.03;;;;;;;8.49;94.95;97829.97;5087223;28;20203;-72
2023/01/23 02:31:41;;;;;;;25.97;13.00;;;;;;;8.48;94.27;97841.16;5085176;28;20264;-72
2023/01/23 02:34:11;;;;;;;19.93;11.83;;;;;;;8.52;94.48;97840.19;5088869;28;20692;-73
2023/01/23 02:36:41;;;;;;;21.33;12.70;;;;;;;8.50;94.18;97826.47;5067959;28;20193;-72
2023/01/23 02:39:12;;;;;;;24.37;12.73;;;;;;;8.53;94.36;97819.50;5086565;28;20616;-72
2023/01/23 02:41:41;;;;;;;30.20;12.70;;;;;;;8.50;94.47;97839.38;5087982;28;20358;-72
2023/01/23 02:44:14;;;;;;;19.90;11.77;;;;;;;8.42;93.97;97842.16;5087688;28;20196;-72
2023/01/23 02:46:43;;;;;;;22.80;12.90;;;;;;;8.51;93.88;97841.09;5087051;28;20216;-72
2023/01/23 02:49:10;;;;;;;19.57;11.63;;;;;;;8.44;93.63;97831.78;5086165;28;20251;-72
2023/01/23 02:51:37;;;;;;;19.60;12.43;;;;;;;8.45;93.61;97846.41;5088378;28;20188;-72
2023/01/23 02:54:06;;;;;;;24.73;12.87;;;;;;;8.39;94.15;97841.41;5086274;28;20197;-72
2023/01/23 02:56:33;;;;;;;27.93;13.50;;;;;;;8.51;93.73;97835.94;5087704;28;20195;-72
2023/01/23 03:01:46;;;;;;;22.43;12.00;;;;;;;8.32;93.84;97850.16;5068330;28;20592;-71
2023/01/23 03:04:14;;;;;;;22.17;13.17;;;;;;;8.22;94.45;97845.16;5085577;28;20937;-71
2023/01/23 03:06:41;;;;;;;21.67;12.27;;;;;;;8.14;95.32;97834.19;5085917;28;20558;-72
2023/01/23 03:09:14;;;;;;;26.43;12.03;;;;;;;8.10;94.86;97837.72;5086267;28;21826;-73
2023/01/23 03:11:43;;;;;;;22.23;12.27;;;;;;;8.15;94.44;97858.25;5118516;27;20192;-72
2023/01/23 03:14:15;;;;;;;19.63;12.20;;;;;;;8.10;95.28;97849.75;5085936;28;20184;-72
2023/01/23 03:16:43;;;;;;;23.67;12.70;;;;;;;8.12;94.82;97843.69;5069552;28;20197;-72
2023/01/23 03:19:11;;;;;;;24.43;13.20;;;;;;;8.15;94.55;97840.19;5068771;28;20242;-72
2023/01/23 03:21:39;;;;;;;23.87;13.37;;;;;;;8.30;93.85;97837.28;5086517;28;20307;-72
2023/01/23 03:24:11;;;;;;;23.00;13.07;;;;;;;8.30;94.18;97833.88;5087048;28;20249;-72
2023/01/23 03:26:40;;;;;;;24.53;12.40;;;;;;;8.26;94.36;97838.25;5100956;28;20208;-73
2023/01/23 03:32:04;;;;;;;28.17;17.20;;;;;;;8.17;94.23;97828.97;5068598;28;20189;-74
2023/01/23 03:34:31;;;;;;;31.30;16.17;;;;;;;8.07;94.86;97819.75;5086614;28;20270;-73
2023/01/23 03:37:00;;;;;;;32.97;18.20;;;;;;;8.10;94.51;97829.13;5085046;28;20200;-73
2023/01/23 03:42:17;;;;;;;23.37;13.83;;;;;;;8.26;94.93;97834.81;5085587;28;20273;-73
2023/01/23 03:44:46;;;;;;;21.47;11.87;;;;;;;8.29;94.74;97839.88;5085415;28;20185;-73
2023/01/23 03:47:14;;;;;;;20.87;12.47;;;;;;;8.27;94.61;97828.75;5086004;28;20184;-73
2023/01/23 03:49:41;;;;;;;22.17;12.83;;;;;;;8.31;94.37;97848.44;5086437;28;20743;-73
2023/01/23 03:52:08;;;;;;;22.40;12.83;;;;;;;8.25;94.92;97836.53;5086001;28;20675;-73
2023/01/23 03:54:35;;;;;;;27.50;13.47;;;;;;;8.23;95.14;97852.03;5068620;28;20263;-73
2023/01/23 03:57:05;;;;;;;23.37;12.60;;;;;;;8.21;94.53;97843.50;5085722;28;20593;-72
2023/01/23 03:59:58;;;;;;;21.30;12.27;;;;;;;8.03;94.32;97867.13;5085792;28;20195;-73
2023/01/23 04:02:40;;;;;;;23.47;13.53;;;;;;;7.83;94.31;97861.53;5084977;28;20208;-73
2023/01/23 04:05:09;;;;;;;24.03;13.33;;;;;;;7.80;95.11;97869.38;5085766;28;20193;-72
2023/01/23 04:07:37;;;;;;;23.90;13.50;;;;;;;7.81;94.78;97857.31;5085149;28;20191;-73
2023/01/23 04:10:04;;;;;;;34.43;13.90;;;;;;;7.74;94.85;97854.03;5084971;28;20187;-72
2023/01/23 04:12:31;;;;;;;22.03;12.33;;;;;;;7.70;93.28;97875.59;5086596;28;20188;-73
2023/01/23 04:14:59;;;;;;;25.37;12.23;;;;;;;7.73;92.35;97849.75;5082333;28;20579;-72
2023/01/23 04:17:29;;;;;;;18.47;10.90;;;;;;;7.69;92.47;97878.19;5085218;28;20322;-72
2023/01/23 04:19:56;;;;;;;23.33;10.87;;;;;;;7.72;91.14;97873.84;5084582;28;20217;-73
2023/01/23 04:22:24;;;;;;;18.93;11.10;;;;;;;7.74;91.62;97876.38;5068432;28;20586;-71
2023/01/23 04:24:51;;;;;;;20.60;10.93;;;;;;;7.63;90.65;97863.72;5084641;28;20238;-72
2023/01/23 04:27:18;;;;;;;17.57;10.07;;;;;;;7.56;91.34;97867.31;5084972;28;20282;-72
2023/01/23 04:29:46;;;;;;;24.57;11.87;;;;;;;7.57;91.28;97862.97;5083624;28;20268;-72
2023/01/23 04:32:14;;;;;;;19.40;10.67;;;;;;;7.56;91.18;97876.75;5084860;28;20192;-73
2023/01/23 04:34:47;;;;;;;20.90;10.90;;;;;;;7.55;91.39;97862.16;5083281;28;20592;-71
2023/01/23 04:37:15;;;;;;;21.93;11.40;;;;;;;7.62;91.53;97861.16;5083143;28;20196;-72
2023/01/23 04:39:43;;;;;;;23.47;11.53;;;;;;;7.63;91.78;97871.44;5083945;28;20197;-70
2023/01/23 04:42:12;;;;;;;21.93;11.10;;;;;;;7.55;91.37;97849.28;5084059;28;20212;-71
2023/01/23 04:44:49;;;;;;;21.53;11.37;;;;;;;7.63;90.98;97868.88;5084679;28;20230;-71
2023/01/23 04:47:24;;;;;;;18.47;10.70;;;;;;;7.67;91.45;97873.06;5082490;28;20206;-70
2023/01/23 04:49:52;;;;;;;19.87;10.53;;;;;;;7.61;91.35;97878.34;5084267;28;20181;-71
2023/01/23 04:52:19;;;;;;;24.70;11.20;;;;;;;7.60;91.82;97881.84;5068177;28;20290;-71
2023/01/23 04:54:57;;;;;;;27.00;12.77;;;;;;;7.65;91.90;97892.03;5085631;28;20192;-71
2023/01/23 04:57:24;;;;;;;21.87;11.67;;;;;;;7.47;91.45;97897.56;5084857;28;20192;-71
2023/01/23 04:59:57;;;;;;;21.57;10.30;;;;;;;7.42;91.80;97889.09;5084421;28;20189;-70
2023/01/23 05:02:30;;;;;;;23.40;11.47;;;;;;;7.42;91.36;97897.63;5067567;28;20223;-70
2023/01/23 05:04:57;;;;;;;22.97;12.23;;;;;;;7.53;90.97;97910.31;5066313;28;20912;-70
2023/01/23 05:07:25;;;;;;;22.77;11.50;;;;;;;7.36;91.70;97936.41;5067256;28;20196;-72
2023/01/23 05:10:08;;;;;;;22.93;11.57;;;;;;;7.26;92.05;97901.41;5082662;28;20176;-73
2023/01/23 05:12:35;;;;;;;18.93;11.43;;;;;;;7.22;92.22;97894.59;5083779;28;20204;-72
2023/01/23 05:15:04;;;;;;;19.93;9.57;;;;;;;7.31;91.97;97920.19;5064952;28;20184;-71
2023/01/23 05:17:35;;;;;;;23.93;11.93;;;;;;;7.26;92.52;97914.28;5084585;28;20692;-71
2023/01/23 05:20:04;;;;;;;18.10;9.23;;;;;;;7.25;92.65;97917.75;5085470;28;20268;-71
2023/01/23 05:22:32;;;;;;;19.07;10.23;;;;;;;7.31;92.18;97923.63;5089109;28;20218;-71
2023/01/23 05:25:00;;;;;;;20.03;10.10;;;;;;;7.27;91.93;97926.28;5088632;28;20229;-72
2023/01/23 05:27:30;;;;;;;21.23;11.27;;;;;;;7.41;91.89;97932.03;5089270;28;20176;-72
2023/01/23 05:29:58;;;;;;;17.57;10.23;;;;;;;7.38;92.35;97924.34;5088465;28;20313;-73
2023/01/23 05:32:30;;;;;;;25.47;11.93;;;;;;;7.43;91.43;97935.44;5088797;28;20262;-73
2023/01/23 05:35:17;;;;;;;18.53;10.43;;;;;;;7.42;91.44;97948.34;5088161;28;20193;-71
2023/01/23 05:37:50;;;;;;;19.97;10.17;;;;;;;7.41;91.92;97950.06;5088136;28;20751;-71
2023/01/23 05:40:21;;;;;;;19.33;10.80;;;;;;;7.48;92.26;97964.50;5088923;28;20188;-71
2023/01/23 05:43:17;;;;;;;27.13;10.80;;;;;;;7.49;92.20;97950.78;5089576;28;20224;-72
2023/01/23 05:45:53;;;;;;;18.57;10.87;;;;;;;7.55;92.40;97958.38;5089742;28;20195;-72
2023/01/23 05:48:43;;;;;;;17.17;9.73;;;;;;;7.37;92.37;97976.78;5088227;28;20287;-72
2023/01/23 05:51:10;;;;;;;21.10;10.87;;;;;;;7.41;93.02;97973.25;5087722;28;20191;-70
2023/01/23 05:53:37;;;;;;;25.30;11.27;;;;;;;7.32;93.46;97960.53;5088624;28;20181;-71
2023/01/23 05:56:06;;;;;;;22.97;11.20;;;;;;;7.46;93.27;97974.00;5071081;28;20195;-71
2023/01/23 05:58:41;;;;;;;23.63;12.40;;;;;;;7.44;92.85;97980.09;5088001;28;20212;-71
2023/01/23 06:01:24;;;;;;;18.77;9.80;;;;;;;7.36;92.26;97993.09;5088268;28;20257;-73
2023/01/23 06:04:16;;;;;;;17.50;10.30;;;;;;;7.38;91.79;97991.34;5089191;28;20187;-71
2023/01/23 06:06:55;;;;;;;19.63;10.90;;;;;;;7.42;91.80;98000.72;5088129;28;20658;-73
2023/01/23 06:09:22;;;;;;;19.83;12.50;;;;;;;7.34;91.56;97992.28;5087816;28;20216;-72
2023/01/23 06:11:49;;;;;;;25.60;12.47;;;;;;;7.38;92.52;98007.66;5087820;28;20196;-72
2023/01/23 06:14:17;;;;;;;19.27;11.30;;;;;;;7.34;92.52;98005.16;5088052;28;20242;-72
2023/01/23 06:16:45;;;;;;;17.70;10.37;;;;;;;7.34;91.92;98011.16;5087450;28;20202;-72
2023/01/23 06:19:12;;;;;;;18.73;9.30;;;;;;;7.30;92.31;98011.22;5071245;28;20269;-73
2023/01/23 06:21:39;;;;;;;21.47;12.87;;;;;;;7.32;93.16;98010.34;5070399;28;20188;-72
2023/01/23 06:24:07;;;;;;;24.83;11.30;;;;;;;7.32;93.15;98010.34;5087845;28;20271;-71
2023/01/23 06:26:34;;;;;;;18.03;11.57;;;;;;;7.21;93.32;98016.56;5087154;28;20625;-72
2023/01/23 06:29:01;;;;;;;18.63;9.63;;;;;;;7.29;93.47;98017.28;5070744;28;20261;-72
2023/01/23 06:31:31;;;;;;;16.07;8.47;;;;;;;7.26;92.55;98033.63;5070251;28;20284;-72
2023/01/23 06:34:01;;;;;;;25.70;13.03;;;;;;;7.33;93.01;98026.66;5086906;28;20181;-71
2023/01/23 06:36:32;;;;;;;22.27;12.43;;;;;;;7.39;92.66;98034.28;5070476;28;20196;-72
2023/01/23 06:39:00;;;;;;;16.40;10.27;;;;;;;7.33;93.23;98034.38;5086081;28;20223;-71
2023/01/23 06:41:34;;;;;;;17.50;9.07;;;;;;;7.31;94.23;98036.13;5086924;28;20198;-71
2023/01/23 06:44:06;;;;;;;16.27;9.50;;;;;;;7.26;94.00;98037.94;5069953;28;20282;-72
2023/01/23 06:46:34;;;;;;;23.07;12.37;;;;;;;7.25;94.50;98026.75;5069751;28;20196;-71
2023/01/23 06:49:04;;;;;;;19.60;10.20;;;;;;;7.25;94.48;98015.63;5088512;28;20522;-71
2023/01/23 06:51:35;;;;;;;24.03;13.30;;;;;;;7.31;94.94;98026.69;5086342;28;20190;-71
2023/01/23 06:54:04;;;;;;;24.37;11.63;;;;;;;7.31;94.79;98031.84;5087340;28;20276;-72
2023/01/23 06:56:32;;;;;;;23.90;12.80;;;;;;;7.38;94.64;98033.41;5069519;28;20193;-72
2023/01/23 06:59:03;;;;;;;25.23;14.07;;;;;;;7.33;95.04;98029.22;5070497;28;20238;-71
2023/01/23 07:01:32;;;;;;;27.13;13.87;;;;;;;7.42;95.08;98038.53;5053154;28;20653;-71
2023/01/23 07:04:14;;;;;;;24.20;14.83;;;;;;;7.38;94.77;98028.25;5054901;28;20232;-73
2023/01/23 07:06:43;;;;;;;23.20;13.47;;;;;;;7.36;95.42;98044.63;5069926;28;20192;-71
2023/01/23 07:09:13;;;;;;;22.30;13.30;;;;;;;7.31;95.92;98041.28;5069794;28;20216;-72
2023/01/23 07:11:44;;;;;;;22.67;12.27;;;;;;;7.33;96.21;98034.38;5086861;28;20998;-71
2023/01/23 07:14:14;;;;;;;19.07;11.30;;;;;;;7.15;95.83;98025.22;5086137;28;20484;-73
2023/01/23 07:16:44;;;;;;;20.07;12.07;;;;;;;7.20;96.46;98026.00;5086132;28;20303;-71
2023/01/23 07:19:12;;;;;;;21.73;13.47;;;;;;;7.32;96.33;98042.97;5086338;28;20192;-71
2023/01/23 07:21:40;;;;;;;24.50;12.27;;;;;;;7.29;95.72;98030.16;5085837;28;20181;-71
2023/01/23 07:24:07;;;;;;;23.37;12.60;;;;;;;7.36;95.41;98060.09;5086448;28;20595;-70
2023/01/23 07:26:34;;;;;;;20.57;10.47;;;;;;;7.23;96.01;98038.00;5085728;28;20246;-71
2023/01/23 07:29:01;;;;;;;18.53;9.90;;;;;;;7.31;95.92;98059.31;5086361;28;20220;-71
2023/01/23 07:31:28;;;;;;;21.00;11.53;;;;;;;7.33;95.57;98055.84;5085531;28;20227;-72
2023/01/23 07:33:56;;;;;;;18.97;10.70;;;;;;;7.37;95.72;98057.50;5087136;28;20187;-71
2023/01/23 07:36:23;;;;;;;19.23;11.00;;;;;;;7.32;95.74;98053.28;5087345;28;20738;-71
2023/01/23 07:38:50;;;;;;;25.40;15.83;;;;;;;7.45;94.69;98054.78;5085265;28;20231;-71
2023/01/23 07:41:17;;;;;;;26.13;14.80;;;;;;;7.37;95.30;98054.94;5052787;28;21151;-72
2023/01/23 07:43:44;;;;;;;23.17;13.63;;;;;;;7.37;95.37;98054.06;5067355;28;20285;-71
2023/01/23 07:46:12;;;;;;;20.83;12.87;;;;;;;7.35;94.88;98053.25;5087067;28;20188;-71
2023/01/23 07:48:39;;;;;;;27.13;15.37;;;;;;;7.50;95.29;98058.13;5068328;28;20239;-73
2023/01/23 07:51:06;;;;;;;27.50;13.80;;;;;;;7.43;95.03;98045.38;5086957;28;20199;-71
2023/01/23 07:53:33;;;;;;;24.87;13.73;;;;;;;7.63;94.04;98071.63;5085648;28;20196;-72
2023/01/23 07:56:05;;;;;;;21.83;11.67;;;;;;;7.48;94.56;98065.03;5085288;28;20743;-71
2023/01/23 07:58:32;;;;;;;23.50;12.97;;;;;;;7.49;94.38;98056.44;5087064;28;20187;-72
2023/01/23 08:01:05;;;;;;;22.73;12.57;;;;;;;7.44;95.04;98057.41;5086322;28;20266;-72
2023/01/23 08:03:32;;;;;;;23.27;12.23;;;;;;;7.44;94.54;98068.53;5085526;28;20242;-72
2023/01/23 08:05:59;;;;;;;22.33;13.60;;;;;;;7.40;95.12;98041.13;5086360;28;20198;-71
2023/01/23 08:08:26;;;;;;;27.13;13.90;;;;;;;7.31;94.84;98025.84;5086822;28;20188;-73
2023/01/23 08:10:53;;;;;;;25.90;14.33;;;;;;;7.42;96.45;98054.81;5086689;28;20194;-72
2023/01/23 08:13:20;;;;;;;29.10;15.67;;;;;;;7.42;96.12;98046.25;5086594;28;20184;-73
2023/01/23 08:15:47;;;;;;;21.10;12.73;;;;;;;7.31;95.94;98036.13;5086786;28;20231;-72
2023/01/23 08:18:15;;;;;;;24.60;13.27;;;;;;;7.50;96.53;98068.41;5085803;28;20196;-73
2023/01/23 08:20:42;;;;;;;25.03;13.30;;;;;;;7.46;96.07;98064.19;5086967;28;20189;-71
2023/01/23 08:23:09;;;;;;;18.63;10.07;;;;;;;7.33;96.56;98075.59;5084384;28;20781;-71
2023/01/23 08:25:37;;;;;;;23.13;13.47;;;;;;;7.38;96.67;98050.59;5084837;28;20646;-72
2023/01/23 08:28:05;;;;;;;28.57;14.43;;;;;;;7.40;97.19;98056.56;5068143;28;20265;-70
2023/01/23 08:30:32;;;;;;;25.33;14.43;;;;;;;7.36;96.98;98050.63;5086103;28;20297;-71
2023/01/23 08:33:00;;;;;;;28.33;17.13;;;;;;;7.54;96.58;98070.09;5068053;28;20675;-72
2023/01/23 08:35:27;;;;;;;32.00;15.73;;;;;;;7.52;97.36;98061.53;5085487;28;20189;-71
2023/01/23 08:37:57;;;;;;;26.43;14.40;;;;;;;7.59;97.38;98062.25;5068069;28;20356;-74
2023/01/23 08:40:24;;;;;;;22.77;11.57;;;;;;;7.57;97.26;98066.59;5067109;28;20200;-71
2023/01/23 08:42:52;;;;;;;26.87;16.40;;;;;;;7.51;97.00;98067.56;5084672;28;20255;-71
2023/01/23 08:45:21;;;;;;;23.90;13.77;;;;;;;7.33;97.21;98029.22;5084451;28;20198;-73
2023/01/23 08:47:48;;;;;;;23.27;14.03;;;;;;;7.51;96.77;98069.28;5084488;28;20215;-73
2023/01/23 08:50:16;;;;;;;21.50;12.87;;;;;;;7.76;96.03;98081.72;5084484;28;20256;-73
2023/01/23 08:52:43;;;;;;;24.17;13.27;;;;;;;7.74;96.36;98078.31;5085491;28;20222;-73
2023/01/23 08:55:11;;;;;;;24.33;14.00;;;;;;;7.82;95.36;98086.75;5088496;28;20638;-72
2023/01/23 08:57:38;;;;;;;21.67;13.13;;;;;;;7.71;95.44;98078.38;5089482;28;20207;-71
2023/01/23 09:00:06;;;;;;;22.37;12.90;;;;;;;7.65;95.06;98083.63;5072236;28;20624;-71
2023/01/23 09:02:33;;;;;;;19.80;13.30;;;;;;;7.61;95.08;98081.97;5089484;28;20675;-71
2023/01/23 09:05:00;;;;;;;21.47;13.27;;;;;;;7.67;95.44;98076.72;5088395;28;20238;-71
2023/01/23 09:07:29;;;;;;;24.07;13.63;;;;;;;7.90;95.02;98074.59;5089892;28;20706;-73
2023/01/23 09:09:56;;;;;;;21.23;13.83;;;;;;;7.83;94.16;98100.53;5088117;28;20216;-73
2023/01/23 09:12:23;;;;;;;17.40;10.63;;;;;;;7.60;94.71;98069.13;5072057;28;20555;-73
2023/01/23 09:14:50;;;;;;;16.77;10.90;;;;;;;7.57;94.97;98076.91;5087821;28;20176;-71
2023/01/23 09:17:17;;;;;;;20.10;12.27;;;;;;;7.70;93.99;98075.81;5089777;28;20216;-72
2023/01/23 09:19:44;;;;;;;20.20;11.67;;;;;;;7.59;94.33;98070.00;5088011;28;20257;-71
2023/01/23 09:22:11;;;;;;;20.27;12.80;;;;;;;7.60;93.90;98070.00;5087928;28;20329;-72
2023/01/23 09:24:38;;;;;;;18.37;10.20;;;;;;;7.50;94.52;98058.13;5089164;28;20248;-72
2023/01/23 09:27:06;;;;;;;20.87;13.13;;;;;;;7.65;94.08;98069.88;5087620;28;20584;-73
2023/01/23 09:29:33;;;;;;;20.40;12.33;;;;;;;7.69;93.74;98056.91;5089843;28;20276;-72
2023/01/23 09:32:01;;;;;;;21.90;12.10;;;;;;;7.62;94.25;98046.75;5089073;28;20239;-71
2023/01/23 09:34:28;;;;;;;14.33;8.77;;;;;;;7.68;93.69;98052.66;5089837;28;20202;-73
2023/01/23 09:36:55;;;;;;;17.27;9.70;;;;;;;7.75;93.79;98061.97;5089065;28;20184;-71
2023/01/23 09:39:22;;;;;;;17.10;9.60;;;;;;;7.43;95.06;98045.38;5089137;28;20222;-72
2023/01/23 09:41:50;;;;;;;17.03;11.33;;;;;;;7.52;95.01;98065.84;5087576;28;20261;-72
2023/01/23 09:44:35;;;;;;;22.87;11.00;;;;;;;7.64;94.53;98061.31;5088667;28;20802;-71
2023/01/23 09:47:14;;;;;;;19.60;11.57;;;;;;;7.66;94.35;98038.94;5087952;28;20204;-71
2023/01/23 09:49:48;;;;;;;18.20;10.33;;;;;;;7.71;93.60;98052.59;5088795;28;20192;-72
2023/01/23 09:52:22;;;;;;;21.40;12.57;;;;;;;7.78;93.57;98056.75;5089244;28;20192;-71
2023/01/23 09:55:00;;;;;;;26.77;14.80;;;;;;;7.82;93.51;98050.66;5088823;28;20275;-71
2023/01/23 09:57:28;;;;;;;21.90;12.77;;;;;;;7.81;93.65;98054.09;5088719;28;20188;-71
2023/01/23 10:00:09;;;;;;;18.97;11.10;;;;;;;7.76;92.89;98057.66;5087676;28;20222;-71
2023/01/23 10:02:36;;;;;;;17.10;10.93;;;;;;;7.88;92.68;98047.13;5088272;28;20581;-72
2023/01/23 10:05:11;;;;;;;22.33;12.77;;;;;;;7.93;92.10;98053.88;5087997;28;20216;-72
2023/01/23 10:07:53;;;;;;;25.77;14.23;;;;;;;8.04;91.79;98054.53;5086444;28;20202;-72
2023/01/23 10:10:36;;;;;;;15.90;10.37;;;;;;;7.95;92.77;98051.28;5088304;28;20185;-73
2023/01/23 10:13:44;;;;;;;17.87;9.63;;;;;;;7.88;93.10;98045.41;5087977;28;20234;-72
2023/01/23 10:16:31;;;;;;;16.87;10.33;;;;;;;7.82;93.86;98050.66;5088423;28;20781;-71
2023/01/23 10:19:45;;;;;;;17.30;9.80;;;;;;;7.84;93.63;98048.91;5085918;28;20195;-73
2023/01/23 10:23:01;;;;;;;18.87;10.43;;;;;;;7.67;93.44;98058.69;5088723;28;20282;-71
2023/01/23 10:26:22;;;;;;;19.93;10.83;;;;;;;7.68;93.37;98051.81;5023076;28;20622;-73
2023/01/23 10:29:49;;;;;;;20.77;11.23;;;;;;;7.75;93.70;98041.34;5085629;28;20261;-72
2023/01/23 10:33:10;;;;;;;17.53;9.07;;;;;;;7.66;94.40;98048.41;5087956;28;20197;-72
2023/01/23 10:36:31;;;;;;;18.17;9.07;;;;;;;7.59;94.23;98047.66;5087970;28;20216;-72
2023/01/23 10:43:58;;;;;;;15.73;8.47;;;;;;;7.72;93.68;98053.44;5082902;28;20236;-72
2023/01/23 10:47:18;;;;;;;17.67;9.73;;;;;;;7.62;93.36;98047.63;5085524;28;20729;-71
2023/01/23 10:50:40;;;;;;;17.10;9.23;;;;;;;7.72;92.87;98048.28;5087129;28;20189;-71
2023/01/23 10:54:01;;;;;;;17.40;9.87;;;;;;;7.78;91.93;98049.03;5087370;28;20184;-71
2023/01/23 10:57:07;;;;;;;16.27;8.73;;;;;;;7.87;91.59;98043.69;5086116;28;20574;-71
2023/01/23 11:00:17;;;;;;;15.43;9.20;;;;;;;7.78;91.60;98043.00;5085292;28;20547;-71
2023/01/23 11:03:20;;;;;;;15.23;9.17;;;;;;;7.76;91.92;98040.47;5087222;28;20680;-71
2023/01/23 11:06:43;;;;;;;17.40;9.37;;;;;;;7.70;91.87;98034.56;5085360;28;20192;-72
2023/01/23 11:10:04;;;;;;;19.57;13.83;;;;;;;7.63;92.14;98039.00;5087724;28;20197;-73
2023/01/23 11:13:25;;;;;;;14.07;9.17;;;;;;;7.58;92.80;98043.41;5087085;28;20196;-73
2023/01/23 11:16:46;;;;;;;15.70;9.67;;;;;;;7.61;92.55;98034.72;5086957;28;20198;-73
2023/01/23 11:20:07;;;;;;;14.37;8.83;;;;;;;7.51;92.50;98031.47;5085785;28;20284;-73
2023/01/23 11:23:09;;;;;;;14.17;8.97;;;;;;;7.58;92.46;98024.50;5068469;28;20193;-72
2023/01/23 11:26:30;;;;;;;18.27;10.07;;;;;;;7.70;92.34;98042.31;5084966;28;20194;-71
2023/01/23 11:30:14;;;;;;;16.50;9.97;;;;;;;7.65;91.76;98042.38;5086163;28;20189;-71
2023/01/23 11:33:46;;;;;;;14.57;9.70;;;;;;;7.80;91.86;98046.41;5084819;28;20665;-70
2023/01/23 11:37:04;;;;;;;13.17;7.93;;;;;;;7.70;91.75;98044.88;5085023;28;20188;-71
2023/01/23 11:39:45;;;;;;;15.43;8.73;;;;;;;7.64;91.65;98045.84;5085357;28;20271;-73
2023/01/23 11:43:06;;;;;;;17.90;10.10;;;;;;;7.58;92.52;98035.66;5084494;28;20587;-73
2023/01/23 11:45:56;;;;;;;18.47;9.90;;;;;;;7.54;93.24;98033.16;5086441;28;20195;-72
2023/01/23 11:49:06;;;;;;;14.30;9.53;;;;;;;7.46;93.14;98032.44;5087334;28;20267;-72
2023/01/23 11:52:21;;;;;;;16.93;11.33;;;;;;;7.48;93.16;98041.00;5087007;28;20204;-73
2023/01/23 11:55:14;;;;;;;22.23;13.37;;;;;;;7.56;91.98;98029.69;5084657;28;20208;-73
2023/01/23 11:57:55;;;;;;;22.13;14.90;;;;;;;7.59;92.10;98039.06;5086590;28;20226;-72
2023/01/23 12:01:22;;;;;;;17.83;12.67;;;;;;;7.52;91.00;98048.66;5084721;28;20237;-72
2023/01/23 12:04:24;;;;;;;17.57;10.20;;;;;;;7.58;90.57;98048.53;5085708;28;20676;-73
2023/01/23 12:07:14;;;;;;;17.23;9.97;;;;;;;7.59;89.69;98057.97;5086420;28;20184;-73
2023/01/23 12:10:47;;;;;;;13.97;8.83;;;;;;;7.51;90.30;98053.81;5086918;28;20216;-72
2023/01/23 12:14:22;;;;;;;12.93;8.13;;;;;;;7.41;91.00;98053.13;5086413;28;20188;-73
2023/01/23 12:17:07;;;;;;;15.10;8.77;;;;;;;7.41;90.37;98058.28;5085959;28;20279;-73
2023/01/23 12:20:00;;;;;;;13.70;7.80;;;;;;;7.50;90.79;98063.25;5084337;28;20223;-72